Allenwood, Pennsylvania
Current Conditions -  °F | °C
As of 2:54 PM on Thursday 27 Nov 2014 (Local Time) from KIPT Reporting Station
Overcast Overcast  
Wind Chill: 29°   Ceiling: 5500
Heat Index: 35°   Visibility: 10mi
Dew Point: 27°   Wind: 7mph
Humidity: 72%   Direction: 250°WSW
Pressure: 30.02"   Gusts: NA
Location:  41.11°N, 76.9°W
Report Text: KIPT 271954Z 25006KT 10SM OVC055 02/M03 A3002 RMK AO2 SLP171 T00171028
Loading
Personal Weather Stations






























Interactive Weather Map New forecast layout! Learn more

10-Day Weather Forecast

Advertisements
Track Severe Weather on mobile